Time;durP1;ratioP1;P1;durP2;ratioP2;P2;SDS_P1;SDS_P2;PMS_P1;PMS_P2;Temp;Humidity;BMP_temperature;BMP_pressure;BME280_temperature;BME280_humidity;BME280_pressure;Samples;Min_cycle;Max_cycle;Signal;HPM_P1;HPM_P2
2021/09/24 00:02:09;;;;;;;9.43;7.78;;;;;;;7.69;98.50;98965.11;1712043;83;21075;-78
2021/09/24 00:04:36;;;;;;;8.95;8.08;;;;;;;7.72;98.72;98961.15;1740035;82;21528;-78
2021/09/24 00:07:04;;;;;;;8.93;7.90;;;;;;;7.72;98.80;98950.44;1720818;82;21200;-76
2021/09/24 00:09:30;;;;;;;7.72;6.90;;;;;;;7.72;98.74;98949.10;1718495;82;21000;-74
2021/09/24 00:11:58;;;;;;;9.00;7.92;;;;;;;7.72;98.99;98952.56;1715027;82;20940;-74
2021/09/24 00:14:25;;;;;;;7.80;7.00;;;;;;;7.70;99.13;98944.52;1717567;83;21478;-76
2021/09/24 00:16:53;;;;;;;13.43;7.75;;;;;;;7.70;99.34;98935.95;1719765;82;20941;-76
2021/09/24 00:19:19;;;;;;;9.35;7.25;;;;;;;7.68;99.54;98925.20;1719582;82;21085;-76
2021/09/24 00:21:47;;;;;;;8.48;6.58;;;;;;;7.69;99.72;98912.11;1718974;82;21004;-75
2021/09/24 00:24:14;;;;;;;18.90;8.40;;;;;;;7.71;99.98;98904.66;1718108;82;20963;-84
2021/09/24 00:26:42;;;;;;;9.33;7.85;;;;;;;7.71;99.91;98900.64;1639782;85;21051;-75
2021/09/24 00:29:08;;;;;;;12.53;7.22;;;;;;;7.74;100.00;98900.13;1667147;85;21108;-83
2021/09/24 00:31:36;;;;;;;10.50;7.60;;;;;;;7.72;100.00;98886.20;1682162;85;20965;-76
2021/09/24 00:34:03;;;;;;;10.40;7.28;;;;;;;7.69;100.00;98888.03;1677958;85;21571;-78
2021/09/24 00:36:31;;;;;;;9.00;8.08;;;;;;;7.68;100.00;98887.22;1715739;83;20971;-84
2021/09/24 00:38:59;;;;;;;12.75;8.58;;;;;;;7.70;100.00;98893.14;1716343;83;21043;-84
2021/09/24 00:41:25;;;;;;;9.13;8.18;;;;;;;7.79;100.00;98893.50;1719540;82;20929;-79
2021/09/24 00:43:52;;;;;;;10.10;8.78;;;;;;;7.88;100.00;98887.97;1694105;83;21043;-73
2021/09/24 00:46:20;;;;;;;12.28;7.92;;;;;;;7.96;100.00;98880.81;1685885;84;21480;-72
2021/09/24 00:48:47;;;;;;;11.28;9.20;;;;;;;8.01;100.00;98872.05;1684467;85;21061;-73
2021/09/24 00:51:14;;;;;;;11.00;7.70;;;;;;;7.99;99.52;98860.25;1678890;85;21500;-75
2021/09/24 00:53:41;;;;;;;10.03;7.95;;;;;;;7.98;99.58;98868.52;1683923;84;21014;-75
2021/09/24 00:56:08;;;;;;;9.68;8.73;;;;;;;7.96;99.70;98858.06;1683643;84;21126;-76
2021/09/24 00:58:36;;;;;;;12.25;9.83;;;;;;;7.98;99.69;98861.83;1683501;85;20984;-75
2021/09/24 01:01:04;;;;;;;16.50;13.15;;;;;;;7.99;99.80;98852.22;1684145;85;21544;-77
2021/09/24 01:03:32;;;;;;;9.13;8.00;;;;;;;8.04;99.81;98850.12;1673886;85;21019;-79
2021/09/24 01:05:58;;;;;;;10.40;8.88;;;;;;;8.05;99.74;98849.87;1648173;85;20949;-78
2021/09/24 01:08:27;;;;;;;12.33;8.13;;;;;;;8.06;99.74;98849.31;1685399;85;20986;-77
2021/09/24 01:10:53;;;;;;;7.83;7.03;;;;;;;8.08;99.74;98839.98;1663439;85;21081;-77
2021/09/24 01:13:20;;;;;;;9.68;7.35;;;;;;;8.12;99.79;98833.05;1670715;84;21063;-77
2021/09/24 01:15:48;;;;;;;11.30;8.40;;;;;;;8.10;99.76;98835.19;1728197;82;20990;-77
2021/09/24 01:18:14;;;;;;;9.65;8.65;;;;;;;8.09;99.94;98821.52;1725866;82;21041;-77
2021/09/24 01:20:42;;;;;;;9.60;8.30;;;;;;;8.06;100.00;98820.67;1719430;82;20988;-78
2021/09/24 01:23:09;;;;;;;7.47;6.87;;;;;;;8.10;100.00;98817.78;1719368;82;20961;-77
2021/09/24 01:25:41;;;;;;;8.65;7.50;;;;;;;8.16;100.00;98811.39;1719967;82;20976;-76
2021/09/24 01:28:07;;;;;;;11.22;9.88;;;;;;;8.23;100.00;98812.52;1719370;82;21544;-75
2021/09/24 01:30:34;;;;;;;8.25;7.28;;;;;;;8.28;100.00;98801.84;1649627;84;20964;-76
2021/09/24 01:33:02;;;;;;;7.95;7.20;;;;;;;8.30;100.00;98803.75;1658969;83;21498;-75
2021/09/24 01:35:28;;;;;;;11.33;8.55;;;;;;;8.31;100.00;98790.11;1675406;85;21068;-76
2021/09/24 01:37:55;;;;;;;7.37;6.65;;;;;;;8.35;100.00;98792.27;1683223;84;21513;-74
2021/09/24 01:40:21;;;;;;;11.20;8.58;;;;;;;8.40;100.00;98781.59;1717489;83;21002;-75
2021/09/24 01:42:53;;;;;;;9.35;7.25;;;;;;;8.38;100.00;98773.83;1718370;82;21630;-75
2021/09/24 01:45:19;;;;;;;11.12;8.88;;;;;;;8.38;100.00;98767.13;1706856;83;21078;-75
2021/09/24 01:47:46;;;;;;;11.40;8.03;;;;;;;8.38;100.00;98765.79;1707121;83;20993;-74
2021/09/24 01:50:14;;;;;;;8.75;7.72;;;;;;;8.40;100.00;98756.13;1695965;82;21659;-74
2021/09/24 01:52:42;;;;;;;9.60;7.28;;;;;;;8.43;100.00;98759.13;1690477;83;20958;-75
2021/09/24 01:55:10;;;;;;;8.60;7.37;;;;;;;8.45;100.00;98756.17;1719969;82;21008;-74
2021/09/24 01:57:37;;;;;;;12.23;8.98;;;;;;;8.48;100.00;98759.69;1719574;82;21272;-74
2021/09/24 02:00:06;;;;;;;10.13;9.10;;;;;;;8.47;100.00;98742.80;1719399;82;20968;-74
2021/09/24 02:02:33;;;;;;;8.78;7.53;;;;;;;8.47;100.00;98735.30;1705029;83;21048;-75
2021/09/24 02:04:59;;;;;;;12.28;9.00;;;;;;;8.49;100.00;98734.52;1691044;83;21059;-73
2021/09/24 02:07:26;;;;;;;9.65;8.45;;;;;;;8.48;100.00;98728.34;1710931;83;21009;-74
2021/09/24 02:09:53;;;;;;;8.33;7.58;;;;;;;8.49;100.00;98718.44;1726411;82;20984;-75
2021/09/24 02:12:21;;;;;;;9.75;8.80;;;;;;;8.48;100.00;98717.62;1726480;83;21509;-75
2021/09/24 02:14:47;;;;;;;8.75;7.85;;;;;;;8.52;100.00;98703.17;1716445;83;21062;-76
2021/09/24 02:17:13;;;;;;;11.33;9.43;;;;;;;8.57;100.00;98707.21;1727741;82;20904;-74
2021/09/24 02:19:41;;;;;;;10.00;8.93;;;;;;;8.59;100.00;98707.21;1727757;82;21493;-74
2021/09/24 02:22:08;;;;;;;8.65;7.53;;;;;;;8.64;100.00;98699.73;1712028;83;21058;-74
2021/09/24 02:24:36;;;;;;;10.25;9.13;;;;;;;8.66;100.00;98690.37;1724262;83;21588;-74
2021/09/24 02:27:04;;;;;;;14.18;9.08;;;;;;;8.66;100.00;98689.03;1727882;82;21035;-75
2021/09/24 02:29:32;;;;;;;10.08;9.05;;;;;;;8.67;100.00;98685.30;1727867;82;20940;-75
2021/09/24 02:31:59;;;;;;;11.05;8.60;;;;;;;8.70;100.00;98686.62;1715981;83;21512;-75
2021/09/24 02:34:25;;;;;;;13.03;9.45;;;;;;;8.70;100.00;98674.03;1698953;83;21136;-74
2021/09/24 02:36:53;;;;;;;9.88;8.98;;;;;;;8.70;100.00;98668.67;1709945;83;21552;-75
2021/09/24 02:39:45;;;;;;;10.32;9.33;;;;;;;8.68;100.00;98666.00;1720501;83;20918;-75
2021/09/24 02:42:12;;;;;;;10.78;9.73;;;;;;;8.69;100.00;98655.52;1713674;83;21086;-75
2021/09/24 02:44:40;;;;;;;13.30;9.00;;;;;;;8.75;100.00;98651.80;1719326;83;21459;-75
2021/09/24 02:47:08;;;;;;;10.15;9.10;;;;;;;8.78;100.00;98639.20;1719035;83;21081;-75
2021/09/24 02:49:37;;;;;;;11.45;10.23;;;;;;;8.80;100.00;98630.38;1719461;83;20930;-75
2021/09/24 02:52:05;;;;;;;11.65;9.40;;;;;;;8.78;100.00;98633.06;1699882;83;21488;-75
2021/09/24 02:54:33;;;;;;;10.70;9.60;;;;;;;8.78;100.00;98637.08;1718560;83;21054;-75
2021/09/24 02:56:59;;;;;;;10.63;9.33;;;;;;;8.78;100.00;98625.02;1718915;83;21065;-74
2021/09/24 02:59:26;;;;;;;10.88;9.88;;;;;;;8.79;100.00;98614.01;1699921;83;21025;-74
2021/09/24 03:01:55;;;;;;;11.57;10.10;;;;;;;8.79;100.00;98612.67;1699085;83;21558;-74
2021/09/24 03:04:22;;;;;;;13.48;10.28;;;;;;;8.82;100.00;98604.65;1720486;83;20974;-74
2021/09/24 03:06:48;;;;;;;12.78;11.43;;;;;;;8.84;100.00;98611.34;1720735;82;21092;-75
2021/09/24 03:09:16;;;;;;;12.10;10.78;;;;;;;8.87;100.00;98609.49;1688578;84;21577;-74
2021/09/24 03:11:44;;;;;;;17.73;10.68;;;;;;;8.88;100.00;98606.25;1669108;84;21903;-75
2021/09/24 03:14:11;;;;;;;11.25;9.33;;;;;;;8.95;100.00;98613.52;1715275;83;21001;-75
2021/09/24 03:16:41;;;;;;;13.13;9.78;;;;;;;8.98;100.00;98610.29;1687229;84;21542;-76
2021/09/24 03:19:09;;;;;;;11.95;10.53;;;;;;;9.02;100.00;98594.75;1712965;83;21080;-74
2021/09/24 03:21:37;;;;;;;11.73;9.68;;;;;;;9.04;100.00;98587.78;1669895;85;20948;-75
2021/09/24 03:24:05;;;;;;;11.63;10.45;;;;;;;9.05;100.00;98580.82;1714550;83;21146;-75
2021/09/24 03:26:33;;;;;;;13.18;9.35;;;;;;;9.05;100.00;98585.38;1720787;83;21001;-75
2021/09/24 03:28:59;;;;;;;12.55;10.13;;;;;;;9.06;100.00;98565.00;1699841;83;21577;-74
2021/09/24 03:31:27;;;;;;;13.25;10.72;;;;;;;9.10;100.00;98575.46;1695406;83;21021;-75
2021/09/24 03:33:55;;;;;;;10.43;9.43;;;;;;;9.14;100.00;98566.34;1711279;83;21242;-74
2021/09/24 03:36:23;;;;;;;12.78;11.15;;;;;;;9.17;100.00;98567.13;1704916;83;21074;-75
2021/09/24 03:38:51;;;;;;;12.58;10.48;;;;;;;9.20;100.00;98558.56;1688611;84;21028;-74
2021/09/24 03:41:17;;;;;;;14.07;11.08;;;;;;;9.24;100.00;98552.13;1639412;86;21011;-75
2021/09/24 03:43:45;;;;;;;12.53;11.28;;;;;;;9.23;100.00;98530.39;1639055;86;21072;-76
2021/09/24 03:46:11;;;;;;;13.50;10.38;;;;;;;9.22;100.00;98530.11;1671656;84;21044;-74
2021/09/24 03:48:38;;;;;;;11.05;9.98;;;;;;;9.20;100.00;98527.72;1639393;86;21631;-74
2021/09/24 03:51:05;;;;;;;13.18;10.63;;;;;;;9.22;100.00;98520.72;1653238;85;20899;-75
2021/09/24 03:53:31;;;;;;;14.68;10.53;;;;;;;9.24;100.00;98511.88;1686700;84;20967;-75
2021/09/24 03:55:58;;;;;;;13.05;11.70;;;;;;;9.24;100.00;98522.08;1691233;84;21031;-75
2021/09/24 03:58:26;;;;;;;15.40;10.20;;;;;;;9.25;100.00;98514.30;1645222;86;21034;-78
2021/09/24 04:00:54;;;;;;;10.50;9.38;;;;;;;9.27;100.00;98500.60;1691916;84;21004;-76
2021/09/24 04:03:21;;;;;;;10.98;9.40;;;;;;;9.30;100.00;98501.42;1663174;86;21083;-75
2021/09/24 04:05:48;;;;;;;10.45;9.33;;;;;;;9.32;100.00;98497.91;1652525;84;21011;-75
2021/09/24 04:08:16;;;;;;;12.45;9.65;;;;;;;9.34;100.00;98486.39;1663936;85;21042;-75
2021/09/24 04:10:43;;;;;;;12.18;10.88;;;;;;;9.35;100.00;98484.75;1671400;84;21100;-74
2021/09/24 04:13:09;;;;;;;12.53;10.15;;;;;;;9.37;100.00;98476.44;1694292;83;21005;-75
2021/09/24 04:15:36;;;;;;;11.63;10.32;;;;;;;9.35;100.00;98490.69;1686729;84;21528;-75
2021/09/24 04:18:02;;;;;;;13.15;10.40;;;;;;;9.34;100.00;98473.78;1686827;84;21099;-74
2021/09/24 04:20:29;;;;;;;11.45;9.43;;;;;;;9.35;100.00;98463.28;1658707;85;21603;-74
2021/09/24 04:22:55;;;;;;;14.47;10.93;;;;;;;9.33;100.00;98459.28;1702303;83;20982;-73
2021/09/24 04:25:21;;;;;;;12.58;11.28;;;;;;;9.34;100.00;98450.97;1679079;84;21187;-73
2021/09/24 04:27:47;;;;;;;12.30;8.28;;;;;;;9.36;100.00;98438.07;1691755;84;21012;-75
2021/09/24 04:30:14;;;;;;;12.37;8.88;;;;;;;9.40;100.00;98447.17;1691399;84;21011;-75
2021/09/24 04:32:41;;;;;;;15.18;10.28;;;;;;;9.43;100.00;98437.80;1691179;83;21224;-74
2021/09/24 04:35:10;;;;;;;12.53;10.70;;;;;;;9.45;100.00;98439.65;1663511;83;21523;-74
2021/09/24 04:37:38;;;;;;;12.18;10.32;;;;;;;9.47;100.00;98424.09;1662422;85;20955;-74
2021/09/24 04:40:06;;;;;;;11.03;9.50;;;;;;;9.51;100.00;98423.80;1681171;85;21403;-74
2021/09/24 04:42:33;;;;;;;11.83;10.53;;;;;;;9.53;100.00;98416.30;1661700;85;21097;-76
2021/09/24 04:45:00;;;;;;;10.03;8.50;;;;;;;9.55;100.00;98422.98;1660539;85;21095;-80
2021/09/24 04:47:26;;;;;;;10.68;9.33;;;;;;;9.55;100.00;98406.88;1660789;85;21103;-80
2021/09/24 04:49:55;;;;;;;11.48;9.43;;;;;;;9.57;100.00;98391.86;1683737;84;20986;-76
2021/09/24 04:52:22;;;;;;;10.30;9.28;;;;;;;9.60;100.00;98401.50;1683642;85;21541;-79
2021/09/24 04:54:49;;;;;;;14.75;9.13;;;;;;;9.60;100.00;98385.92;1676322;85;21025;-76
2021/09/24 04:57:17;;;;;;;10.58;8.90;;;;;;;9.63;100.00;98400.16;1664494;85;21046;-75
2021/09/24 04:59:44;;;;;;;18.82;8.83;;;;;;;9.64;100.00;98388.31;1676541;85;21489;-73
2021/09/24 05:02:11;;;;;;;10.35;9.35;;;;;;;9.63;100.00;98384.05;1662248;85;21067;-75
2021/09/24 05:04:38;;;;;;;14.05;10.98;;;;;;;9.66;100.00;98375.97;1656176;86;21153;-74
2021/09/24 05:07:05;;;;;;;13.20;9.40;;;;;;;9.65;100.00;98375.16;1635006;86;21142;-73
2021/09/24 05:09:33;;;;;;;10.48;9.38;;;;;;;9.63;100.00;98366.07;1683751;85;21040;-75
2021/09/24 05:11:59;;;;;;;8.35;7.55;;;;;;;9.65;100.00;98348.33;1684040;85;21076;-74
2021/09/24 05:14:26;;;;;;;10.30;9.20;;;;;;;9.65;100.00;98348.33;1682813;84;21485;-74
2021/09/24 05:16:53;;;;;;;11.90;9.05;;;;;;;9.69;100.00;98366.82;1681610;84;21015;-72
2021/09/24 05:19:20;;;;;;;11.85;9.45;;;;;;;9.64;100.00;98336.78;1661688;85;21048;-74
2021/09/24 05:21:47;;;;;;;7.87;7.08;;;;;;;9.59;100.00;98326.64;1677883;84;32500;-74
2021/09/24 05:24:14;;;;;;;8.90;7.95;;;;;;;9.59;100.00;98331.44;1682711;85;21034;-76
2021/09/24 05:26:40;;;;;;;11.68;8.23;;;;;;;9.60;100.00;98317.48;1682571;84;21095;-74
2021/09/24 05:29:08;;;;;;;9.98;8.98;;;;;;;9.62;100.00;98309.97;1683050;84;21709;-72
2021/09/24 05:31:35;;;;;;;11.33;8.20;;;;;;;9.61;100.00;98297.62;1660038;84;21012;-74
2021/09/24 05:34:02;;;;;;;10.13;7.67;;;;;;;9.57;100.00;98285.84;1660286;85;21051;-75
2021/09/24 05:36:29;;;;;;;8.15;7.33;;;;;;;9.54;100.00;98276.45;1662085;85;21528;-75
2021/09/24 05:38:55;;;;;;;9.23;7.40;;;;;;;9.59;100.00;98275.64;1682076;85;20991;-73
2021/09/24 05:41:24;;;;;;;10.38;8.63;;;;;;;9.61;100.00;98272.13;1684136;84;21490;-73
2021/09/24 05:43:50;;;;;;;8.50;7.70;;;;;;;9.64;100.00;98267.53;1684104;85;21088;-74
2021/09/24 05:46:18;;;;;;;11.28;9.05;;;;;;;9.68;100.00;98275.84;1684079;84;21029;-75
2021/09/24 05:48:44;;;;;;;10.38;8.33;;;;;;;9.72;100.00;98271.52;1662341;85;21338;-75
2021/09/24 05:51:11;;;;;;;10.95;7.60;;;;;;;9.75;100.00;98255.66;1683370;85;21102;-75
2021/09/24 05:53:37;;;;;;;9.00;7.37;;;;;;;9.75;100.00;98243.56;1654499;85;20959;-73
2021/09/24 05:56:05;;;;;;;8.10;7.33;;;;;;;9.79;100.00;98267.97;1660556;85;21505;-72
2021/09/24 05:58:31;;;;;;;7.58;6.85;;;;;;;9.81;100.00;98243.80;1683014;85;21091;-74
2021/09/24 06:00:59;;;;;;;11.20;9.43;;;;;;;9.85;100.00;98234.64;1661999;85;20976;-74
2021/09/24 06:03:25;;;;;;;7.60;6.80;;;;;;;9.84;100.00;98245.11;1651942;85;21713;-73
2021/09/24 06:05:52;;;;;;;9.98;8.90;;;;;;;9.84;100.00;98249.14;1681729;83;21030;-72
2021/09/24 06:08:18;;;;;;;8.18;7.08;;;;;;;9.83;100.00;98269.81;1684359;84;20995;-74
2021/09/24 06:10:45;;;;;;;7.65;6.85;;;;;;;9.85;100.00;98263.64;1683839;84;21127;-73
2021/09/24 06:13:11;;;;;;;9.55;7.70;;;;;;;9.90;100.00;98238.09;1661397;85;21567;-74
2021/09/24 06:15:38;;;;;;;9.05;8.15;;;;;;;9.94;100.00;98241.81;1660635;85;21039;-75
2021/09/24 06:18:07;;;;;;;9.30;7.70;;;;;;;9.97;100.00;98229.72;1682544;85;21750;-73
2021/09/24 06:20:36;;;;;;;9.50;7.08;;;;;;;9.95;100.00;98213.88;1666947;85;21135;-72
2021/09/24 06:23:04;;;;;;;6.92;6.22;;;;;;;9.96;100.00;98220.05;1654953;86;21015;-72
2021/09/24 06:25:31;;;;;;;7.50;5.92;;;;;;;9.96;100.00;98210.66;1671194;85;21035;-72
2021/09/24 06:27:59;;;;;;;7.25;6.55;;;;;;;9.98;100.00;98244.19;1684255;84;21110;-73
2021/09/24 06:30:25;;;;;;;6.80;6.12;;;;;;;9.99;100.00;98215.45;1683849;84;20982;-71
2021/09/24 06:32:52;;;;;;;8.88;6.42;;;;;;;10.00;100.00;98227.80;1662344;85;21073;-73
2021/09/24 06:35:20;;;;;;;8.43;7.20;;;;;;;9.97;100.00;98215.75;1683250;85;20997;-73
2021/09/24 06:37:47;;;;;;;7.37;6.67;;;;;;;9.96;100.00;98211.46;1633922;85;21091;-73
2021/09/24 06:40:13;;;;;;;8.20;6.35;;;;;;;9.98;100.00;98199.88;1658840;85;21078;-74
2021/09/24 06:42:40;;;;;;;8.58;6.90;;;;;;;10.00;100.00;98213.84;1678277;85;21553;-75
2021/09/24 06:45:09;;;;;;;8.18;6.62;;;;;;;10.03;100.00;98195.80;1680129;84;21237;-74
2021/09/24 06:47:35;;;;;;;8.20;7.37;;;;;;;10.03;100.00;98170.83;1679840;84;21055;-74
2021/09/24 06:50:03;;;;;;;7.40;6.67;;;;;;;9.97;100.00;98171.45;1682906;83;21505;-72
2021/09/24 06:52:29;;;;;;;9.25;6.53;;;;;;;9.98;100.00;98185.11;1665541;85;21525;-75
2021/09/24 06:54:56;;;;;;;7.78;7.03;;;;;;;9.97;100.00;98183.53;1680227;85;21011;-74
2021/09/24 06:57:22;;;;;;;6.35;5.75;;;;;;;10.00;100.00;98178.13;1654841;83;21029;-73
2021/09/24 06:59:50;;;;;;;5.83;5.30;;;;;;;10.03;100.00;98165.45;1673687;85;21036;-72
2021/09/24 07:02:17;;;;;;;7.37;6.33;;;;;;;10.04;100.00;98177.27;1678930;85;20999;-72
2021/09/24 07:04:43;;;;;;;7.65;6.90;;;;;;;10.03;100.00;98179.69;1660976;84;21052;-73
2021/09/24 07:07:09;;;;;;;11.00;5.78;;;;;;;10.05;100.00;98173.51;1679921;85;21035;-73
2021/09/24 07:09:36;;;;;;;7.58;6.70;;;;;;;10.06;100.00;98173.77;1679856;85;21019;-72
2021/09/24 07:12:06;;;;;;;7.40;6.53;;;;;;;10.10;100.00;98185.28;1678797;85;20992;-73
2021/09/24 07:14:32;;;;;;;7.00;6.30;;;;;;;10.13;100.00;98186.85;1662274;83;21036;-74
2021/09/24 07:16:59;;;;;;;8.23;5.42;;;;;;;10.14;100.00;98179.05;1659027;85;21980;-73
2021/09/24 07:19:26;;;;;;;7.03;6.28;;;;;;;10.16;100.00;98168.07;1658721;85;20968;-72
2021/09/24 07:21:53;;;;;;;6.47;5.87;;;;;;;10.17;100.00;98153.56;1678681;85;21520;-71
2021/09/24 07:24:21;;;;;;;6.83;5.85;;;;;;;10.18;100.00;98181.46;1658955;85;21079;-72
2021/09/24 07:26:49;;;;;;;9.13;7.65;;;;;;;10.19;100.00;98165.61;1679018;83;20952;-72
2021/09/24 07:29:16;;;;;;;6.92;6.30;;;;;;;10.23;100.00;98173.89;1677792;85;21180;-72
2021/09/24 07:31:43;;;;;;;7.67;6.10;;;;;;;10.25;100.00;98152.92;1679811;85;21060;-74
2021/09/24 07:34:11;;;;;;;7.72;6.60;;;;;;;10.27;100.00;98147.51;1666429;85;21039;-72
2021/09/24 07:36:37;;;;;;;6.80;6.20;;;;;;;10.29;100.00;98150.73;1663311;85;20964;-72
2021/09/24 07:39:04;;;;;;;7.40;6.40;;;;;;;10.31;100.00;98151.80;1678326;85;21096;-71
2021/09/24 07:41:31;;;;;;;7.10;6.40;;;;;;;10.30;100.00;98142.93;1678236;84;21528;-72
2021/09/24 07:43:59;;;;;;;8.30;6.62;;;;;;;10.32;100.00;98135.37;1695273;84;21054;-70
2021/09/24 07:46:26;;;;;;;7.50;6.22;;;;;;;10.34;100.00;98126.48;1684911;84;20959;-73
2021/09/24 07:48:52;;;;;;;8.40;7.22;;;;;;;10.38;100.00;98124.02;1683036;83;21023;-71
2021/09/24 07:51:19;;;;;;;7.05;6.35;;;;;;;10.39;100.00;98133.15;1659975;84;21080;-74
2021/09/24 07:53:45;;;;;;;6.08;5.42;;;;;;;10.40;100.00;98138.79;1679736;85;21168;-71
2021/09/24 07:56:12;;;;;;;8.55;5.20;;;;;;;10.43;100.00;98132.83;1679700;84;21007;-70
2021/09/24 07:58:40;;;;;;;7.60;6.12;;;;;;;10.45;100.00;98130.64;1674712;85;20913;-72
2021/09/24 08:01:07;;;;;;;8.43;7.53;;;;;;;10.45;100.00;98140.05;1678252;84;20995;-73
2021/09/24 08:03:35;;;;;;;7.47;6.47;;;;;;;10.44;100.00;98127.72;1659564;85;21093;-72
2021/09/24 08:06:01;;;;;;;6.97;5.97;;;;;;;10.46;100.00;98145.69;1679485;85;21003;-72
2021/09/24 08:08:28;;;;;;;7.45;6.42;;;;;;;10.48;100.00;98139.49;1673907;85;21556;-73
2021/09/24 08:10:56;;;;;;;8.18;6.78;;;;;;;10.49;100.00;98133.03;1679321;83;21031;-72
2021/09/24 08:13:24;;;;;;;6.03;5.47;;;;;;;10.53;100.00;98144.00;1681467;83;21016;-71
2021/09/24 08:15:53;;;;;;;6.33;5.58;;;;;;;10.54;100.00;98133.52;1679581;85;21044;-71
2021/09/24 08:18:22;;;;;;;10.68;6.42;;;;;;;10.57;100.00;98147.71;1679838;85;21039;-70
2021/09/24 08:20:50;;;;;;;6.72;5.87;;;;;;;10.57;100.00;98148.25;1675563;85;21525;-73
2021/09/24 08:23:18;;;;;;;7.65;6.65;;;;;;;10.61;100.00;98137.98;1659497;85;20988;-74
2021/09/24 08:25:46;;;;;;;8.08;6.10;;;;;;;10.65;100.00;98134.97;1679827;85;21485;-73
2021/09/24 08:28:12;;;;;;;7.90;7.10;;;;;;;10.68;100.00;98129.03;1673317;85;21020;-73
2021/09/24 08:30:40;;;;;;;9.68;7.72;;;;;;;10.71;100.00;98137.05;1674448;85;21174;-72
2021/09/24 08:33:07;;;;;;;7.87;7.12;;;;;;;10.73;100.00;98130.86;1679631;85;21007;-73
2021/09/24 08:35:35;;;;;;;6.65;5.45;;;;;;;10.76;100.00;98126.23;1679548;84;20912;-74
2021/09/24 08:38:02;;;;;;;10.15;7.25;;;;;;;10.77;100.00;98127.84;1659942;85;21020;-73
2021/09/24 08:40:31;;;;;;;12.03;7.47;;;;;;;10.81;100.00;98128.86;1665052;84;21097;-73
2021/09/24 08:43:00;;;;;;;10.13;7.60;;;;;;;10.85;100.00;98133.37;1651189;86;21509;-74
2021/09/24 08:45:27;;;;;;;8.63;7.80;;;;;;;10.92;100.00;98137.05;1635861;86;21164;-76
2021/09/24 08:48:03;;;;;;;11.22;8.73;;;;;;;10.97;100.00;98143.71;1639375;87;21027;-74
2021/09/24 08:50:31;;;;;;;9.65;8.30;;;;;;;11.01;100.00;98124.55;1622186;86;21154;-74
2021/09/24 08:52:58;;;;;;;10.75;7.92;;;;;;;11.06;100.00;98127.72;1627904;86;21073;-75
2021/09/24 08:55:28;;;;;;;11.40;9.20;;;;;;;11.10;100.00;98138.14;1652627;85;21025;-77
2021/09/24 08:57:54;;;;;;;16.23;7.80;;;;;;;11.13;100.00;98137.55;1639431;86;21043;-70
2021/09/24 09:00:22;;;;;;;12.58;7.50;;;;;;;11.21;100.00;98138.27;1641598;86;21087;-73
2021/09/24 09:03:13;;;;;;;10.53;8.83;;;;;;;11.30;100.00;98137.84;1637855;86;21007;-73
2021/09/24 09:05:46;;;;;;;14.18;8.00;;;;;;;11.39;100.00;98123.98;1647977;85;21577;-74
2021/09/24 09:08:20;;;;;;;13.10;9.03;;;;;;;11.47;100.00;98121.95;1643232;86;21540;-73
2021/09/24 09:11:10;;;;;;;15.05;9.75;;;;;;;11.53;100.00;98116.75;1668005;85;20989;-75
2021/09/24 09:13:51;;;;;;;13.78;8.80;;;;;;;11.60;100.00;98109.66;1656872;86;20963;-76
2021/09/24 09:16:30;;;;;;;13.60;9.75;;;;;;;11.65;100.00;98115.77;1655124;86;21130;-79
2021/09/24 09:19:15;;;;;;;13.40;8.65;;;;;;;11.73;100.00;98118.34;1651987;86;22261;-77
2021/09/24 09:21:47;;;;;;;16.52;9.60;;;;;;;11.78;100.00;98112.88;1639588;86;21642;-72
2021/09/24 09:24:22;;;;;;;18.85;8.63;;;;;;;11.88;100.00;98117.28;1640005;85;21115;-71
2021/09/24 09:26:54;;;;;;;15.60;9.28;;;;;;;11.96;100.00;98117.94;1632930;86;21104;-74
2021/09/24 09:29:19;;;;;;;16.12;8.63;;;;;;;12.06;100.00;98114.52;1628014;86;21031;-73
2021/09/24 09:31:59;;;;;;;12.63;7.15;;;;;;;12.15;100.00;98109.22;1640325;86;21543;-73
2021/09/24 09:34:35;;;;;;;14.60;7.83;;;;;;;12.24;100.00;98114.17;1657304;85;21843;-73
2021/09/24 09:37:16;;;;;;;16.37;7.40;;;;;;;12.32;100.00;98113.49;1654566;85;21145;-77
2021/09/24 09:39:43;;;;;;;12.50;7.65;;;;;;;12.40;98.12;98109.28;1657323;84;21583;-74
2021/09/24 09:42:10;;;;;;;18.67;7.95;;;;;;;12.51;98.28;98103.95;1638574;86;21091;-74
2021/09/24 09:44:38;;;;;;;12.23;7.58;;;;;;;12.59;97.26;98105.38;1674785;84;21554;-73
2021/09/24 09:47:05;;;;;;;15.95;8.23;;;;;;;12.66;96.09;98104.41;1679334;84;21168;-76
2021/09/24 09:49:33;;;;;;;16.10;7.33;;;;;;;12.72;95.44;98094.31;1668278;84;20967;-74
2021/09/24 09:52:10;;;;;;;10.43;6.17;;;;;;;12.77;94.73;98117.14;1683434;84;21043;-76
2021/09/24 09:54:37;;;;;;;8.83;7.35;;;;;;;12.83;93.88;98102.45;1666554;84;21078;-74
2021/09/24 09:57:22;;;;;;;12.70;5.95;;;;;;;12.91;92.71;98100.37;1673092;84;20979;-77
2021/09/24 09:59:53;;;;;;;10.10;5.12;;;;;;;13.03;92.08;98101.20;1668580;85;21257;-76
2021/09/24 10:02:22;;;;;;;8.35;5.58;;;;;;;13.09;90.10;98098.64;1668454;85;21007;-78
2021/09/24 10:04:52;;;;;;;6.62;4.40;;;;;;;13.14;89.81;98126.09;1685336;84;20922;-78
2021/09/24 10:07:23;;;;;;;6.00;4.97;;;;;;;13.11;87.35;98120.73;1681488;85;20992;-76
2021/09/24 10:10:14;;;;;;;5.53;4.70;;;;;;;13.08;86.60;98109.18;1658491;85;21108;-75
2021/09/24 10:12:42;;;;;;;6.72;4.78;;;;;;;13.06;87.47;98121.62;1698948;83;21139;-74
2021/09/24 10:15:11;;;;;;;5.33;4.83;;;;;;;13.07;87.37;98113.78;1686622;83;21029;-76
2021/09/24 10:17:38;;;;;;;5.75;4.08;;;;;;;13.11;87.54;98108.59;1685051;83;20991;-80
2021/09/24 10:20:08;;;;;;;5.58;4.92;;;;;;;13.14;87.09;98130.14;1683399;84;21096;-82
2021/09/24 10:22:34;;;;;;;7.60;3.92;;;;;;;13.14;86.81;98145.77;1678025;84;21017;-79
2021/09/24 10:25:01;;;;;;;4.78;3.75;;;;;;;13.20;86.64;98129.70;1682592;83;21190;-80
2021/09/24 10:27:30;;;;;;;4.67;3.90;;;;;;;13.27;86.73;98130.64;1687368;83;21096;-84
2021/09/24 10:30:01;;;;;;;4.08;3.67;;;;;;;13.36;86.55;98124.76;1683925;85;21016;-73
2021/09/24 10:32:28;;;;;;;4.28;3.52;;;;;;;13.44;85.73;98126.72;1661154;85;21562;-74
2021/09/24 10:35:06;;;;;;;6.22;3.45;;;;;;;13.56;85.62;98113.48;1692862;84;21037;-70
2021/09/24 10:37:36;;;;;;;7.47;3.60;;;;;;;13.64;84.57;98110.02;1648621;86;21938;-72
2021/09/24 10:40:22;;;;;;;4.17;3.10;;;;;;;13.75;82.79;98107.88;1656006;85;20971;-74
2021/09/24 10:42:58;;;;;;;5.25;3.22;;;;;;;13.92;82.74;98110.66;1664249;86;22196;-78
2021/09/24 10:45:42;;;;;;;6.95;3.05;;;;;;;14.08;80.78;98131.34;1681757;84;21010;-80
2021/09/24 10:48:24;;;;;;;5.87;2.08;;;;;;;14.24;77.32;98136.05;1672562;84;20983;-83
2021/09/24 10:51:06;;;;;;;5.47;1.90;;;;;;;14.38;72.30;98123.25;1682845;84;21151;-81
2021/09/24 10:53:43;;;;;;;2.65;1.60;;;;;;;14.45;67.67;98166.61;1619180;87;21098;-87
2021/09/24 10:56:15;;;;;;;2.80;1.52;;;;;;;14.44;67.15;98136.05;1653233;86;21006;-81
2021/09/24 10:58:42;;;;;;;4.12;1.50;;;;;;;14.40;67.55;98141.30;1665968;84;21036;-82
2021/09/24 11:01:14;;;;;;;5.05;1.40;;;;;;;14.33;65.47;98160.42;1659849;85;21103;-82
2021/09/24 11:03:58;;;;;;;2.12;1.30;;;;;;;14.25;65.58;98174.13;1651048;85;20928;-81
2021/09/24 11:06:46;;;;;;;6.03;1.40;;;;;;;14.18;65.74;98152.16;1667906;86;21056;-77
2021/09/24 11:09:21;;;;;;;4.15;1.62;;;;;;;14.11;66.57;98142.88;1666573;86;20947;-80
2021/09/24 11:12:02;;;;;;;3.17;1.70;;;;;;;14.05;66.38;98151.70;1666382;85;20975;-87
2021/09/24 11:14:42;;;;;;;3.98;2.17;;;;;;;14.01;67.16;98146.64;1677166;84;21067;-79
2021/09/24 11:17:11;;;;;;;2.75;1.60;;;;;;;14.01;67.62;98147.19;1694202;84;21591;-81
2021/09/24 11:19:47;;;;;;;3.98;1.25;;;;;;;14.02;68.21;98154.20;1694278;84;21087;-80
2021/09/24 11:22:22;;;;;;;10.70;1.85;;;;;;;14.02;67.76;98142.84;1685549;84;21592;-82
2021/09/24 11:25:03;;;;;;;2.77;1.62;;;;;;;14.05;67.83;98148.19;1677288;84;21018;-80
2021/09/24 11:27:37;;;;;;;1.98;1.22;;;;;;;14.06;67.17;98134.89;1666404;85;21774;-82
2021/09/24 11:30:08;;;;;;;3.70;1.67;;;;;;;14.12;66.75;98150.69;1644437;86;20975;-79
2021/09/24 11:32:44;;;;;;;7.67;1.82;;;;;;;14.17;66.01;98155.16;1666238;86;21051;-79
2021/09/24 11:35:16;;;;;;;3.05;1.80;;;;;;;14.24;66.13;98146.06;1679944;85;21583;-81